Time,TemperatureF,DewpointF,PressureIn,WindDirection,WindDirectionDegrees,WindSpeedMPH,WindSpeedGustMPH,Humidity,HourlyPrecipIn,Conditions,Clouds,dailyrainin,SoftwareType,DateUTC
2013-01-26 00:05:00,34.6,34.1,30.30,West,274,2.0,5.0,98,0.00,,,0.00,Wunderground v.1.15,2013-01-26 05:05:00,
2013-01-26 00:10:00,34.5,34.0,30.30,SE,128,2.0,5.0,98,0.00,,,0.00,Wunderground v.1.15,2013-01-26 05:10:00,
2013-01-26 00:15:00,34.4,33.9,30.30,WNW,300,2.0,2.0,98,0.00,,,0.00,Wunderground v.1.15,2013-01-26 05:15:00,
2013-01-26 00:20:00,34.4,33.9,30.30,SSW,208,2.0,5.0,98,0.00,,,0.00,Wunderground v.1.15,2013-01-26 05:20:00,
2013-01-26 00:25:00,34.4,33.9,30.30,SSE,163,1.0,5.0,98,0.00,,,0.00,Wunderground v.1.15,2013-01-26 05:25:00,
2013-01-26 00:30:00,34.3,33.8,30.30,South,181,1.0,5.0,98,0.00,,,0.00,Wunderground v.1.15,2013-01-26 05:30:00,
2013-01-26 00:35:00,34.3,33.8,30.30,South,182,2.0,2.0,98,0.00,,,0.00,Wunderground v.1.15,2013-01-26 05:35:00,
2013-01-26 00:40:00,34.2,33.7,30.31,SW,219,2.0,5.0,98,0.00,,,0.00,Wunderground v.1.15,2013-01-26 05:40:00,
2013-01-26 00:45:00,34.2,33.7,30.30,South,190,1.0,1.0,98,0.00,,,0.00,Wunderground v.1.15,2013-01-26 05:45:00,
2013-01-26 00:50:00,34.2,33.7,30.31,South,190,1.0,2.0,98,0.00,,,0.00,Wunderground v.1.15,2013-01-26 05:50:00,
2013-01-26 00:55:00,34.2,33.7,30.30,South,190,1.0,5.0,98,0.00,,,0.00,Wunderground v.1.15,2013-01-26 05:55:00,
2013-01-26 01:05:00,34.1,33.6,30.30,South,190,0.0,5.0,98,0.00,,,0.00,Wunderground v.1.15,2013-01-26 06:05:00,
2013-01-26 01:10:00,34.1,33.6,30.30,South,172,0.0,5.0,98,0.00,,,0.00,Wunderground v.1.15,2013-01-26 06:10:00,
2013-01-26 01:15:00,34.2,33.7,30.30,SE,137,1.0,1.0,98,0.00,,,0.00,Wunderground v.1.15,2013-01-26 06:15:00,
2013-01-26 01:20:00,34.2,33.7,30.30,South,175,1.0,5.0,98,0.00,,,0.00,Wunderground v.1.15,2013-01-26 06:20:00,
2013-01-26 01:25:00,34.2,33.7,30.30,East,80,1.0,1.0,98,0.00,,,0.00,Wunderground v.1.15,2013-01-26 06:25:00,
2013-01-26 10:45:00,29.7,27.9,30.40,South,171,3.0,3.0,93,0.00,,,0.00,Wunderground v.1.15,2013-01-26 15:45:00,
2013-01-26 10:55:00,30.0,28.0,30.41,South,172,1.0,5.0,92,0.00,,,0.00,Wunderground v.1.15,2013-01-26 15:55:00,
2013-01-26 11:05:00,30.4,28.1,30.41,SSE,150,2.0,2.0,91,0.00,,,0.00,Wunderground v.1.15,2013-01-26 16:05:00,
2013-01-26 11:10:00,30.7,28.7,30.41,SE,144,1.0,5.0,92,0.00,,,0.00,Wunderground v.1.15,2013-01-26 16:10:00,
2013-01-26 11:15:00,30.9,28.3,30.41,SE,143,1.0,1.0,90,0.00,,,0.00,Wunderground v.1.15,2013-01-26 16:15:00,
2013-01-26 11:25:00,31.3,28.4,30.41,SW,228,1.0,1.0,89,0.00,,,0.00,Wunderground v.1.15,2013-01-26 16:25:00,
2013-01-26 11:30:00,31.4,28.3,30.41,South,171,2.0,2.0,88,0.00,,,0.00,Wunderground v.1.15,2013-01-26 16:30:00,
2013-01-26 11:40:00,31.7,28.6,30.41,South,177,1.0,5.0,88,0.00,,,0.00,Wunderground v.1.15,2013-01-26 16:40:00,
2013-01-26 11:45:00,32.0,28.6,30.41,ESE,114,1.0,5.0,87,0.00,,,0.00,Wunderground v.1.15,2013-01-26 16:45:00,
2013-01-26 11:50:00,32.2,28.5,30.41,South,189,2.0,5.0,86,0.00,,,0.00,Wunderground v.1.15,2013-01-26 16:50:00,
2013-01-26 11:55:00,32.3,28.3,30.40,SW,233,2.0,2.0,85,0.00,,,0.00,Wunderground v.1.15,2013-01-26 16:55:00,
2013-01-26 12:05:00,32.9,28.6,30.40,East,92,1.0,5.0,84,0.00,,,0.00,Wunderground v.1.15,2013-01-26 17:05:00,
2013-01-26 12:10:00,33.0,28.7,30.40,East,100,0.0,5.0,84,0.00,,,0.00,Wunderground v.1.15,2013-01-26 17:10:00,
2013-01-26 12:15:00,33.1,28.5,30.39,East,100,1.0,1.0,83,0.00,,,0.00,Wunderground v.1.15,2013-01-26 17:15:00,
2013-01-26 12:20:00,33.2,28.3,30.39,SSE,158,1.0,5.0,82,0.00,,,0.00,Wunderground v.1.15,2013-01-26 17:20:00,
2013-01-26 12:25:00,33.3,28.4,30.39,SSE,155,1.0,1.0,82,0.00,,,0.00,Wunderground v.1.15,2013-01-26 17:25:00,
2013-01-26 12:30:00,33.5,28.6,30.39,SSE,154,1.0,3.0,82,0.00,,,0.00,Wunderground v.1.15,2013-01-26 17:30:00,
2013-01-26 12:35:00,33.7,28.2,30.39,SSE,148,1.0,5.0,80,0.00,,,0.00,Wunderground v.1.15,2013-01-26 17:35:00,
2013-01-26 12:40:00,33.9,28.4,30.39,SW,223,1.0,5.0,80,0.00,,,0.00,Wunderground v.1.15,2013-01-26 17:40:00,
2013-01-26 12:50:00,34.4,28.2,30.38,South,172,2.0,5.0,78,0.00,,,0.00,Wunderground v.1.15,2013-01-26 17:50:00,
2013-01-26 12:55:00,34.6,28.4,30.38,SW,231,2.0,5.0,78,0.00,,,0.00,Wunderground v.1.15,2013-01-26 17:55:00,
2013-01-26 13:05:00,34.9,28.4,30.39,SSE,161,1.0,1.0,77,0.00,,,0.00,Wunderground v.1.15,2013-01-26 18:05:00,
2013-01-26 13:10:00,35.1,28.9,30.38,SW,222,1.0,5.0,78,0.00,,,0.00,Wunderground v.1.15,2013-01-26 18:10:00,
2013-01-26 13:15:00,35.2,28.7,30.38,ESE,103,2.0,5.0,77,0.00,,,0.00,Wunderground v.1.15,2013-01-26 18:15:00,
2013-01-26 13:20:00,35.3,28.8,30.38,ESE,103,2.0,5.0,77,0.00,,,0.00,Wunderground v.1.15,2013-01-26 18:20:00,
2013-01-26 13:25:00,35.5,28.7,30.38,ESE,103,2.0,5.0,76,0.00,,,0.00,Wunderground v.1.15,2013-01-26 18:25:00,
2013-01-26 13:30:00,35.8,29.0,30.37,South,178,2.0,5.0,76,0.00,,,0.00,Wunderground v.1.15,2013-01-26 18:30:00,
2013-01-26 13:35:00,36.4,29.2,30.37,SSW,192,2.0,5.0,75,0.00,,,0.00,Wunderground v.1.15,2013-01-26 18:35:00,
2013-01-26 13:40:00,37.4,29.9,30.37,SSW,194,2.0,5.0,74,0.00,,,0.00,Wunderground v.1.15,2013-01-26 18:40:00,
2013-01-26 13:45:00,38.6,30.4,30.37,SSW,194,2.0,5.0,72,0.00,,,0.00,Wunderground v.1.15,2013-01-26 18:45:00,
2013-01-26 13:50:00,39.7,30.7,30.36,SSE,165,2.0,5.0,70,0.00,,,0.00,Wunderground v.1.15,2013-01-26 18:50:00,
2013-01-26 14:05:00,41.6,29.5,30.36,SW,221,2.0,5.0,62,0.00,,,0.00,Wunderground v.1.15,2013-01-26 19:05:00,
2013-01-26 14:10:00,42.2,29.7,30.36,South,169,3.0,5.0,61,0.00,,,0.00,Wunderground v.1.15,2013-01-26 19:10:00,
2013-01-26 14:15:00,42.4,29.1,30.36,SSE,149,3.0,3.0,59,0.00,,,0.00,Wunderground v.1.15,2013-01-26 19:15:00,
2013-01-26 14:20:00,42.3,29.4,30.36,South,175,2.0,5.0,60,0.00,,,0.00,Wunderground v.1.15,2013-01-26 19:20:00,
2013-01-26 14:25:00,42.3,29.0,30.36,SSE,162,2.0,2.0,59,0.00,,,0.00,Wunderground v.1.15,2013-01-26 19:25:00,
2013-01-26 14:30:00,42.5,29.6,30.36,ESE,116,2.0,5.0,60,0.00,,,0.00,Wunderground v.1.15,2013-01-26 19:30:00,
2013-01-26 14:35:00,42.6,29.3,30.35,SE,134,2.0,5.0,59,0.00,,,0.00,Wunderground v.1.15,2013-01-26 19:35:00,
2013-01-26 14:40:00,42.6,28.8,30.36,SE,135,2.0,5.0,58,0.00,,,0.00,Wunderground v.1.15,2013-01-26 19:40:00,
2013-01-26 14:45:00,43.2,29.0,30.35,NNW,332,2.0,5.0,57,0.00,,,0.00,Wunderground v.1.15,2013-01-26 19:45:00,
2013-01-26 14:50:00,43.7,29.0,30.36,ESE,109,2.0,5.0,56,0.00,,,0.00,Wunderground v.1.15,2013-01-26 19:50:00,
2013-01-26 14:55:00,43.9,28.8,30.36,West,268,2.0,2.0,55,0.00,,,0.00,Wunderground v.1.15,2013-01-26 19:55:00,
2013-01-26 15:05:00,44.7,28.6,30.36,SSW,205,2.0,5.0,53,0.00,,,0.00,Wunderground v.1.15,2013-01-26 20:05:00,
2013-01-26 15:10:00,45.1,28.5,30.36,SW,219,2.0,5.0,52,0.00,,,0.00,Wunderground v.1.15,2013-01-26 20:10:00,
2013-01-26 15:15:00,45.4,28.3,30.36,SSE,167,2.0,2.0,51,0.00,,,0.00,Wunderground v.1.15,2013-01-26 20:15:00,
2013-01-26 15:20:00,45.4,28.3,30.36,SSW,213,2.0,5.0,51,0.00,,,0.00,Wunderground v.1.15,2013-01-26 20:20:00,
2013-01-26 15:25:00,45.3,27.7,30.36,SSE,165,2.0,5.0,50,0.00,,,0.00,Wunderground v.1.15,2013-01-26 20:25:00,
2013-01-26 15:30:00,45.2,27.6,30.36,SE,146,2.0,5.0,50,0.00,,,0.00,Wunderground v.1.15,2013-01-26 20:30:00,
2013-01-26 15:35:00,45.0,27.5,30.36,WSW,252,2.0,2.0,50,0.00,,,0.00,Wunderground v.1.15,2013-01-26 20:35:00,
2013-01-26 15:40:00,45.0,27.9,30.36,WSW,247,1.0,3.0,51,0.00,,,0.00,Wunderground v.1.15,2013-01-26 20:40:00,
2013-01-26 15:45:00,45.1,27.6,30.36,South,169,2.0,5.0,50,0.00,,,0.01,Wunderground v.1.15,2013-01-26 20:45:00,
2013-01-26 15:50:00,45.6,27.0,30.36,SSE,154,2.0,5.0,48,0.00,,,0.01,Wunderground v.1.15,2013-01-26 20:50:00,
2013-01-26 16:05:00,45.6,27.5,30.36,NNW,334,2.0,2.0,49,0.00,,,0.01,Wunderground v.1.15,2013-01-26 21:05:00,
2013-01-26 16:10:00,45.4,26.8,30.36,SSW,197,2.0,4.0,48,0.00,,,0.01,Wunderground v.1.15,2013-01-26 21:10:00,
2013-01-26 16:15:00,44.8,26.3,30.36,South,188,2.0,5.0,48,0.00,,,0.01,Wunderground v.1.15,2013-01-26 21:15:00,
2013-01-26 16:25:00,44.4,26.9,30.36,SSW,207,1.0,5.0,50,0.00,,,0.01,Wunderground v.1.15,2013-01-26 21:25:00,
2013-01-26 16:30:00,44.7,27.2,30.36,SSE,157,1.0,5.0,50,0.00,,,0.01,Wunderground v.1.15,2013-01-26 21:30:00,
2013-01-26 16:35:00,45.3,27.7,30.37,South,186,1.0,5.0,50,0.00,,,0.01,Wunderground v.1.15,2013-01-26 21:35:00,
2013-01-26 16:40:00,45.9,27.3,30.37,South,186,1.0,5.0,48,0.00,,,0.01,Wunderground v.1.15,2013-01-26 21:40:00,
2013-01-26 16:45:00,46.1,27.5,30.37,SSW,213,2.0,5.0,48,0.00,,,0.01,Wunderground v.1.15,2013-01-26 21:45:00,
2013-01-26 16:50:00,46.0,27.4,30.37,SSW,193,2.0,5.0,48,0.00,,,0.01,Wunderground v.1.15,2013-01-26 21:50:00,
2013-01-26 16:55:00,46.1,27.5,30.37,SSW,209,2.0,5.0,48,0.00,,,0.01,Wunderground v.1.15,2013-01-26 21:55:00,
2013-01-26 17:05:00,45.8,26.7,30.37,SSW,202,3.0,5.0,47,0.00,,,0.01,Wunderground v.1.15,2013-01-26 22:05:00,
2013-01-26 17:10:00,45.4,27.3,30.37,South,173,3.0,5.0,49,0.00,,,0.01,Wunderground v.1.15,2013-01-26 22:10:00,
2013-01-26 17:15:00,45.1,26.6,30.37,SSW,196,3.0,5.0,48,0.00,,,0.01,Wunderground v.1.15,2013-01-26 22:15:00,
2013-01-26 17:20:00,44.7,26.7,30.37,South,181,2.0,5.0,49,0.00,,,0.01,Wunderground v.1.15,2013-01-26 22:20:00,
2013-01-26 17:25:00,44.2,26.7,30.37,SSW,193,3.0,5.0,50,0.00,,,0.01,Wunderground v.1.15,2013-01-26 22:25:00,
2013-01-26 17:30:00,43.8,27.3,30.37,SSE,163,2.0,5.0,52,0.00,,,0.01,Wunderground v.1.15,2013-01-26 22:30:00,
2013-01-26 17:35:00,43.5,27.5,30.37,SSE,153,2.0,5.0,53,0.00,,,0.01,Wunderground v.1.15,2013-01-26 22:35:00,
2013-01-26 17:45:00,42.5,27.0,30.37,SW,233,1.0,1.0,54,0.00,,,0.01,Wunderground v.1.15,2013-01-26 22:45:00,
2013-01-26 17:50:00,42.1,27.1,30.38,SW,233,0.0,5.0,55,0.00,,,0.01,Wunderground v.1.15,2013-01-26 22:50:00,
2013-01-26 17:55:00,41.6,27.5,30.38,South,184,1.0,5.0,57,0.00,,,0.01,Wunderground v.1.15,2013-01-26 22:55:00,
2013-01-26 18:05:00,40.6,27.4,30.39,South,183,0.0,5.0,59,0.00,,,0.01,Wunderground v.1.15,2013-01-26 23:05:00,
2013-01-26 18:10:00,40.1,27.3,30.39,South,183,0.0,5.0,60,0.00,,,0.01,Wunderground v.1.15,2013-01-26 23:10:00,
2013-01-26 18:15:00,39.6,27.6,30.39,South,181,1.0,1.0,62,0.00,,,0.01,Wunderground v.1.15,2013-01-26 23:15:00,
2013-01-26 18:20:00,39.2,28.0,30.39,SE,135,1.0,5.0,64,0.00,,,0.01,Wunderground v.1.15,2013-01-26 23:20:00,
2013-01-26 18:25:00,38.8,27.7,30.39,SE,132,1.0,1.0,64,0.00,,,0.01,Wunderground v.1.15,2013-01-26 23:25:00,
2013-01-26 18:30:00,38.4,28.0,30.39,SE,132,0.0,5.0,66,0.00,,,0.01,Wunderground v.1.15,2013-01-26 23:30:00,
2013-01-26 18:35:00,38.0,28.0,30.39,SE,137,1.0,5.0,67,0.00,,,0.01,Wunderground v.1.15,2013-01-26 23:35:00,
2013-01-26 18:40:00,37.7,28.4,30.39,South,182,1.0,5.0,69,0.00,,,0.01,Wunderground v.1.15,2013-01-26 23:40:00,
2013-01-26 18:45:00,37.3,28.1,30.40,South,184,1.0,1.0,69,0.00,,,0.01,Wunderground v.1.15,2013-01-26 23:45:00,
2013-01-26 18:50:00,37.0,28.5,30.40,SE,131,1.0,2.0,71,0.00,,,0.01,Wunderground v.1.15,2013-01-26 23:50:00,
2013-01-26 18:55:00,36.7,28.5,30.40,SSE,147,1.0,1.0,72,0.00,,,0.01,Wunderground v.1.15,2013-01-26 23:55:00,
2013-01-26 19:05:00,36.2,28.4,30.39,ESE,119,1.0,1.0,73,0.00,,,0.01,Wunderground v.1.15,2013-01-27 00:05:00,
2013-01-26 19:10:00,35.9,28.4,30.40,South,171,1.0,5.0,74,0.00,,,0.01,Wunderground v.1.15,2013-01-27 00:10:00,
2013-01-26 19:20:00,35.6,28.1,30.40,SSW,195,2.0,5.0,74,0.00,,,0.01,Wunderground v.1.15,2013-01-27 00:20:00,
2013-01-26 19:25:00,35.5,28.0,30.41,SSW,206,2.0,2.0,74,0.00,,,0.01,Wunderground v.1.15,2013-01-27 00:25:00,
2013-01-26 19:30:00,35.4,28.3,30.41,SSW,197,1.0,5.0,75,0.00,,,0.01,Wunderground v.1.15,2013-01-27 00:30:00,
2013-01-26 19:35:00,35.2,28.1,30.41,NE,49,1.0,1.0,75,0.00,,,0.01,Wunderground v.1.15,2013-01-27 00:35:00,
2013-01-26 19:40:00,35.1,28.0,30.41,NW,319,1.0,2.0,75,0.00,,,0.01,Wunderground v.1.15,2013-01-27 00:40:00,
2013-01-26 19:45:00,34.9,28.1,30.41,ESE,120,1.0,5.0,76,0.00,,,0.01,Wunderground v.1.15,2013-01-27 00:45:00,
2013-01-26 19:50:00,34.8,28.0,30.42,ESE,121,1.0,5.0,76,0.00,,,0.01,Wunderground v.1.15,2013-01-27 00:50:00,
2013-01-26 19:55:00,34.7,27.9,30.41,SSE,165,1.0,5.0,76,0.00,,,0.01,Wunderground v.1.15,2013-01-27 00:55:00,
2013-01-26 20:05:00,34.4,27.9,30.41,SSE,163,2.0,2.0,77,0.00,,,0.01,Wunderground v.1.15,2013-01-27 01:05:00,
2013-01-26 20:10:00,34.4,27.9,30.41,SW,225,2.0,5.0,77,0.00,,,0.01,Wunderground v.1.15,2013-01-27 01:10:00,
2013-01-26 20:15:00,34.3,27.8,30.42,SSE,162,1.0,5.0,77,0.00,,,0.01,Wunderground v.1.15,2013-01-27 01:15:00,
2013-01-26 20:20:00,34.2,27.7,30.42,SSE,163,1.0,5.0,77,0.00,,,0.01,Wunderground v.1.15,2013-01-27 01:20:00,
2013-01-26 20:25:00,34.2,27.7,30.42,SSE,162,2.0,2.0,77,0.00,,,0.01,Wunderground v.1.15,2013-01-27 01:25:00,
2013-01-26 20:30:00,33.9,27.4,30.42,SSE,162,1.0,5.0,77,0.00,,,0.01,Wunderground v.1.15,2013-01-27 01:30:00,
2013-01-26 20:35:00,33.7,27.6,30.42,SSE,162,0.0,5.0,78,0.00,,,0.01,Wunderground v.1.15,2013-01-27 01:35:00,
2013-01-26 20:40:00,33.5,27.7,30.42,East,101,1.0,5.0,79,0.00,,,0.01,Wunderground v.1.15,2013-01-27 01:40:00,
2013-01-26 20:45:00,33.5,27.7,30.42,ENE,71,1.0,5.0,79,0.00,,,0.01,Wunderground v.1.15,2013-01-27 01:45:00,
2013-01-26 20:50:00,33.5,27.7,30.42,NW,315,1.0,5.0,79,0.00,,,0.01,Wunderground v.1.15,2013-01-27 01:50:00,
2013-01-26 20:55:00,33.5,27.7,30.42,WSW,252,0.0,5.0,79,0.00,,,0.01,Wunderground v.1.15,2013-01-27 01:55:00,
2013-01-26 21:05:00,33.2,27.4,30.42,SSE,165,0.0,5.0,79,0.00,,,0.01,Wunderground v.1.15,2013-01-27 02:05:00,
2013-01-26 21:10:00,33.2,27.7,30.42,ESE,103,1.0,5.0,80,0.00,,,0.01,Wunderground v.1.15,2013-01-27 02:10:00,
2013-01-26 21:15:00,33.5,28.0,30.42,East,100,1.0,1.0,80,0.00,,,0.01,Wunderground v.1.15,2013-01-27 02:15:00,
2013-01-26 21:20:00,33.5,28.0,30.42,East,100,1.0,5.0,80,0.00,,,0.01,Wunderground v.1.15,2013-01-27 02:20:00,
2013-01-26 21:30:00,33.7,27.9,30.43,SE,128,1.0,5.0,79,0.00,,,0.01,Wunderground v.1.15,2013-01-27 02:30:00,
2013-01-26 21:35:00,33.7,27.9,30.43,SE,132,0.0,5.0,79,0.00,,,0.01,Wunderground v.1.15,2013-01-27 02:35:00,
2013-01-26 21:40:00,33.6,28.1,30.43,SE,132,0.0,5.0,80,0.00,,,0.01,Wunderground v.1.15,2013-01-27 02:40:00,
2013-01-26 21:45:00,33.5,28.0,30.44,SE,132,0.0,5.0,80,0.00,,,0.01,Wunderground v.1.15,2013-01-27 02:45:00,
2013-01-26 21:50:00,33.5,28.0,30.44,SSW,200,0.0,5.0,80,0.00,,,0.01,Wunderground v.1.15,2013-01-27 02:50:00,
2013-01-26 21:55:00,33.6,27.8,30.44,South,186,1.0,5.0,79,0.00,,,0.01,Wunderground v.1.15,2013-01-27 02:55:00,
2013-01-26 22:05:00,33.9,27.8,30.44,South,180,1.0,1.0,78,0.00,,,0.01,Wunderground v.1.15,2013-01-27 03:05:00,
2013-01-26 22:10:00,34.0,27.9,30.45,South,180,1.0,5.0,78,0.00,,,0.01,Wunderground v.1.15,2013-01-27 03:10:00,
2013-01-26 22:15:00,33.9,27.8,30.45,South,180,1.0,1.0,78,0.00,,,0.01,Wunderground v.1.15,2013-01-27 03:15:00,
2013-01-26 22:20:00,33.8,28.0,30.45,South,180,0.0,5.0,79,0.00,,,0.01,Wunderground v.1.15,2013-01-27 03:20:00,
2013-01-26 22:30:00,33.7,27.6,30.46,South,175,0.0,5.0,78,0.00,,,0.01,Wunderground v.1.15,2013-01-27 03:30:00,
2013-01-26 22:40:00,34.0,27.5,30.46,South,175,0.0,5.0,77,0.00,,,0.01,Wunderground v.1.15,2013-01-27 03:40:00,
2013-01-26 22:50:00,34.2,27.4,30.46,SW,217,1.0,5.0,76,0.00,,,0.01,Wunderground v.1.15,2013-01-27 03:50:00,
2013-01-26 22:55:00,34.4,27.6,30.46,SW,217,1.0,1.0,76,0.00,,,0.01,Wunderground v.1.15,2013-01-27 03:55:00,
2013-01-26 23:05:00,34.3,27.5,30.46,SW,217,1.0,1.0,76,0.00,,,0.01,Wunderground v.1.15,2013-01-27 04:05:00,
2013-01-26 23:10:00,34.3,27.8,30.47,SW,217,1.0,2.0,77,0.00,,,0.01,Wunderground v.1.15,2013-01-27 04:10:00,
2013-01-26 23:15:00,34.2,27.7,30.47,SW,217,1.0,5.0,77,0.00,,,0.01,Wunderground v.1.15,2013-01-27 04:15:00,
2013-01-26 23:20:00,34.3,27.8,30.47,SW,217,1.0,5.0,77,0.00,,,0.01,Wunderground v.1.15,2013-01-27 04:20:00,
2013-01-26 23:25:00,34.3,27.8,30.47,SW,217,1.0,5.0,77,0.00,,,0.01,Wunderground v.1.15,2013-01-27 04:25:00,
2013-01-26 23:30:00,34.4,27.9,30.47,East,85,0.0,5.0,77,0.00,,,0.01,Wunderground v.1.15,2013-01-27 04:30:00,
2013-01-26 23:35:00,34.2,27.7,30.47,East,85,0.0,5.0,77,0.00,,,0.01,Wunderground v.1.15,2013-01-27 04:35:00,
2013-01-26 23:40:00,34.1,27.6,30.47,East,85,0.0,5.0,77,0.00,,,0.01,Wunderground v.1.15,2013-01-27 04:40:00,
2013-01-26 23:45:00,34.0,27.5,30.47,East,85,0.0,5.0,77,0.00,,,0.01,Wunderground v.1.15,2013-01-27 04:45:00,
2013-01-26 23:50:00,33.9,27.4,30.47,East,85,0.0,5.0,77,0.00,,,0.01,Wunderground v.1.15,2013-01-27 04:50:00,
2013-01-26 23:55:00,33.8,27.7,30.47,East,85,0.0,5.0,78,0.00,,,0.01,Wunderground v.1.15,2013-01-27 04:55:00,